createdAt,value
2023-04-26T00:00:48.438Z,101299.53
2023-04-26T00:02:53.744Z,101301.34
2023-04-26T00:04:59.212Z,101306.78
2023-04-26T00:07:03.506Z,101304.34
2023-04-26T00:09:08.306Z,101305.28
2023-04-26T00:11:13.562Z,101311.47
2023-04-26T00:13:25.474Z,101307.97
2023-04-26T00:15:30.063Z,101310.69
2023-04-26T00:17:39.327Z,101310.75
2023-04-26T00:19:46.055Z,101303.00
2023-04-26T00:21:50.577Z,101303.97
2023-04-26T00:23:55.329Z,101304.94
2023-04-26T00:26:00.155Z,101305.88
2023-04-26T00:28:04.683Z,101303.22
2023-04-26T00:30:10.787Z,101300.59
2023-04-26T00:32:15.802Z,101296.16
2023-04-26T00:34:21.929Z,101291.84
2023-04-26T00:36:28.152Z,101293.47
2023-04-26T00:38:33.419Z,101294.28
2023-04-26T00:40:38.319Z,101293.22
2023-04-26T00:42:44.733Z,101295.78
2023-04-26T00:44:50.751Z,101298.28
2023-04-26T00:46:56.394Z,101286.81
2023-04-26T00:49:00.794Z,101286.81
2023-04-26T00:51:07.474Z,101283.28
2023-04-26T00:53:14.984Z,101280.63
2023-04-26T00:55:21.424Z,101274.56
2023-04-26T00:57:26.353Z,101276.50
2023-04-26T00:59:30.850Z,101274.00
2023-04-26T01:01:36.581Z,101270.63
2023-04-26T01:03:40.959Z,101262.66
2023-04-26T01:05:46.454Z,101267.00
2023-04-26T01:07:52.206Z,101258.19
2023-04-26T01:09:58.669Z,101254.59
2023-04-26T01:12:02.989Z,101254.53
2023-04-26T01:14:08.633Z,101252.75
2023-04-26T01:16:12.803Z,101243.22
2023-04-26T01:18:17.744Z,101247.63
2023-04-26T01:20:22.520Z,101247.63
2023-04-26T01:22:26.619Z,101247.63
2023-04-26T01:24:32.599Z,101244.94
2023-04-26T01:26:37.203Z,101244.94
2023-04-26T01:28:41.756Z,101243.94
2023-04-26T01:30:45.815Z,101247.34
2023-04-26T01:32:50.507Z,101234.97
2023-04-26T01:34:55.185Z,101233.13
2023-04-26T01:36:59.243Z,101227.69
2023-04-26T01:39:06.060Z,101231.13
2023-04-26T01:41:11.533Z,101227.59
2023-04-26T01:43:15.993Z,101228.34
2023-04-26T01:45:20.289Z,101224.81
2023-04-26T01:47:43.392Z,101228.28
2023-04-26T01:49:48.066Z,101223.00
2023-04-26T01:51:52.592Z,101223.00
2023-04-26T01:53:56.593Z,101221.25
2023-04-26T01:56:03.503Z,101222.94
2023-04-26T01:58:09.714Z,101215.97
2023-04-26T02:00:14.531Z,101215.91
2023-04-26T02:02:20.563Z,101215.03
2023-04-26T02:04:25.534Z,101218.63
2023-04-26T02:06:29.475Z,101216.91
2023-04-26T02:08:33.787Z,101223.88
2023-04-26T02:10:38.253Z,101216.00
2023-04-26T02:12:44.024Z,101217.81
2023-04-26T02:14:49.499Z,101215.16
2023-04-26T02:16:53.632Z,101209.16
2023-04-26T02:18:57.961Z,101212.81
2023-04-26T02:21:01.559Z,101212.03
2023-04-26T02:23:05.179Z,101207.66
2023-04-26T02:25:09.694Z,101200.63
2023-04-26T02:27:13.080Z,101204.03
2023-04-26T02:29:16.827Z,101206.59
2023-04-26T02:31:22.872Z,101200.50
2023-04-26T02:33:26.922Z,101197.78
2023-04-26T02:35:30.470Z,101201.34
2023-04-26T02:37:35.232Z,101198.69
2023-04-26T02:39:38.897Z,101199.66
2023-04-26T02:41:42.700Z,101190.94
2023-04-26T02:43:46.348Z,101190.03
2023-04-26T02:45:50.140Z,101187.53
2023-04-26T02:47:55.202Z,101185.81
2023-04-26T02:49:58.892Z,101189.44
2023-04-26T02:52:02.894Z,101183.34
2023-04-26T02:54:07.666Z,101178.09
2023-04-26T02:56:11.608Z,101168.41
2023-04-26T02:58:15.611Z,101170.25
2023-04-26T03:00:19.128Z,101162.56
2023-04-26T03:02:23.020Z,101171.38
2023-04-26T03:04:28.892Z,101159.19
2023-04-26T03:06:33.511Z,101154.72
2023-04-26T03:08:37.172Z,101149.53
2023-04-26T03:10:40.657Z,101160.84
2023-04-26T03:12:45.345Z,101160.69
2023-04-26T03:14:48.925Z,101160.59
2023-04-26T03:16:52.924Z,101163.16
2023-04-26T03:18:56.566Z,101165.63
2023-04-26T03:21:01.903Z,101168.19
2023-04-26T03:23:05.349Z,101164.72
2023-04-26T03:25:09.317Z,101159.59
2023-04-26T03:27:12.756Z,101158.88
2023-04-26T03:29:17.368Z,101156.41
2023-04-26T03:31:21.884Z,101156.56
2023-04-26T03:33:25.411Z,101159.19
2023-04-26T03:35:29.697Z,101158.34
2023-04-26T03:37:34.627Z,101156.56
2023-04-26T03:39:42.334Z,101155.66
2023-04-26T03:41:47.240Z,101159.13
2023-04-26T03:43:51.720Z,101149.47
2023-04-26T03:45:55.242Z,101155.44
2023-04-26T03:47:58.811Z,101151.03
2023-04-26T03:50:02.712Z,101145.69
2023-04-26T03:52:07.156Z,101146.53
2023-04-26T03:54:12.432Z,101143.91
2023-04-26T03:56:16.210Z,101142.22
2023-04-26T03:58:20.109Z,101139.50
2023-04-26T04:00:23.731Z,101140.19
2023-04-26T04:02:27.382Z,101138.34
2023-04-26T04:04:33.141Z,101130.44
2023-04-26T04:06:37.024Z,101131.38
2023-04-26T04:08:40.761Z,101117.53
2023-04-26T04:10:46.876Z,101121.13
2023-04-26T04:12:50.532Z,101123.78
2023-04-26T04:14:54.111Z,101119.41
2023-04-26T04:16:57.682Z,101119.41
2023-04-26T04:19:01.457Z,101111.50
2023-04-26T04:21:05.287Z,101113.34
2023-04-26T04:23:08.908Z,101117.75
2023-04-26T04:25:14.312Z,101110.63
2023-04-26T04:27:21.261Z,101114.06
2023-04-26T04:29:25.952Z,101113.97
2023-04-26T04:31:30.183Z,101109.56
2023-04-26T04:33:33.806Z,101115.69
2023-04-26T04:35:37.513Z,101115.56
2023-04-26T04:37:42.224Z,101106.72
2023-04-26T04:39:45.789Z,101109.28
2023-04-26T04:41:50.180Z,101120.59
2023-04-26T04:43:57.420Z,101113.56
2023-04-26T04:46:02.256Z,101122.25
2023-04-26T04:48:06.038Z,101108.16
2023-04-26T04:50:10.549Z,101115.13
2023-04-26T04:52:18.185Z,101121.41
2023-04-26T04:54:22.722Z,101111.84
2023-04-26T04:56:27.507Z,101112.78
2023-04-26T04:58:31.160Z,101118.03
2023-04-26T05:00:38.191Z,101113.72
2023-04-26T05:03:10.430Z,101110.28
2023-04-26T05:05:15.201Z,101114.78
2023-04-26T05:07:19.132Z,101107.88
2023-04-26T05:09:23.438Z,101113.97
2023-04-26T05:11:27.853Z,101113.22
2023-04-26T05:13:32.797Z,101110.63
2023-04-26T05:15:39.106Z,101117.84
2023-04-26T05:17:44.115Z,101119.59
2023-04-26T05:19:57.885Z,101110.78
2023-04-26T05:22:02.141Z,101105.41
2023-04-26T05:24:08.089Z,101114.06
2023-04-26T05:26:16.822Z,101106.06
2023-04-26T05:28:36.892Z,101109.50
2023-04-26T05:31:10.741Z,101117.41
2023-04-26T05:33:34.056Z,101117.41
2023-04-26T05:35:54.568Z,101118.19
2023-04-26T05:37:59.192Z,101113.72
2023-04-26T05:40:04.952Z,101122.41
2023-04-26T05:42:09.924Z,101116.13
2023-04-26T05:44:15.398Z,101129.38
2023-04-26T05:46:23.736Z,101124.88
2023-04-26T05:48:28.063Z,101118.69
2023-04-26T05:50:32.290Z,101124.81
2023-04-26T05:52:37.471Z,101115.00
2023-04-26T05:54:41.786Z,101120.09
2023-04-26T05:56:46.086Z,101126.25
2023-04-26T05:58:50.433Z,101128.59
2023-04-26T06:00:54.836Z,101124.88
2023-04-26T06:03:01.445Z,101128.25
2023-04-26T06:05:07.026Z,101119.25
2023-04-26T06:07:11.145Z,101120.03
2023-04-26T06:09:18.445Z,101112.28
2023-04-26T06:11:24.730Z,101118.47
2023-04-26T06:13:31.629Z,101112.91
2023-04-26T06:15:36.027Z,101113.56
2023-04-26T06:17:41.139Z,101106.75
2023-04-26T06:19:48.914Z,101109.81
2023-04-26T06:21:55.648Z,101109.66
2023-04-26T06:24:00.043Z,101118.22
2023-04-26T06:26:06.171Z,101106.34
2023-04-26T06:28:11.149Z,101110.25
2023-04-26T06:30:16.324Z,101116.66
2023-04-26T06:32:24.562Z,101115.91
2023-04-26T06:34:28.997Z,101115.84
2023-04-26T06:36:35.150Z,101118.41
2023-04-26T06:38:40.058Z,101119.75
2023-04-26T06:40:45.613Z,101119.03
2023-04-26T06:42:50.651Z,101123.59
2023-04-26T06:44:54.759Z,101123.22
2023-04-26T06:46:59.142Z,101115.50
2023-04-26T06:49:03.281Z,101123.31
2023-04-26T06:51:08.737Z,101123.66
2023-04-26T06:53:15.373Z,101122.00
2023-04-26T06:55:20.518Z,101115.34
2023-04-26T06:57:25.054Z,101116.97
2023-04-26T06:59:29.205Z,101121.22
2023-04-26T07:01:35.118Z,101114.38
2023-04-26T07:03:42.802Z,101117.59
2023-04-26T07:05:47.006Z,101122.31
2023-04-26T07:07:51.740Z,101122.34
2023-04-26T07:09:57.259Z,101122.69
2023-04-26T07:12:01.657Z,101118.78
2023-04-26T07:14:05.884Z,101122.94
2023-04-26T07:16:09.941Z,101116.63
2023-04-26T07:18:13.811Z,101118.94
2023-04-26T07:20:20.629Z,101118.38
2023-04-26T07:22:25.515Z,101114.84
2023-04-26T07:24:30.142Z,101115.38
2023-04-26T07:26:37.295Z,101117.69
2023-04-26T07:28:41.251Z,101114.34
2023-04-26T07:30:46.044Z,101116.97
2023-04-26T07:32:50.895Z,101110.09
2023-04-26T07:34:55.505Z,101107.81
2023-04-26T07:37:00.561Z,101101.84
2023-04-26T07:39:05.785Z,101104.16
2023-04-26T07:41:10.560Z,101113.56
2023-04-26T07:43:16.775Z,101113.72
2023-04-26T07:45:21.040Z,101116.13
2023-04-26T07:47:25.540Z,101113.97
2023-04-26T07:49:29.966Z,101119.00
2023-04-26T07:51:34.716Z,101110.25
2023-04-26T07:53:39.225Z,101113.31
2023-04-26T07:55:44.351Z,101108.91
2023-04-26T07:57:48.840Z,101104.19
2023-04-26T07:59:54.479Z,101106.97
2023-04-26T08:01:58.952Z,101105.91
2023-04-26T08:04:05.093Z,101108.69
2023-04-26T08:06:10.541Z,101112.19
2023-04-26T08:08:17.731Z,101106.88
2023-04-26T08:10:23.461Z,101103.78
2023-04-26T08:12:28.329Z,101114.41
2023-04-26T08:14:34.093Z,101110.25
2023-04-26T08:16:39.973Z,101114.31
2023-04-26T08:18:46.796Z,101112.50
2023-04-26T08:20:51.720Z,101115.16
2023-04-26T08:22:58.654Z,101125.47
2023-04-26T08:25:05.220Z,101123.75
2023-04-26T08:27:10.870Z,101118.38
2023-04-26T08:29:16.991Z,101129.47
2023-04-26T08:31:23.619Z,101121.00
2023-04-26T08:33:30.412Z,101126.06
2023-04-26T08:35:35.035Z,101118.47
2023-04-26T08:37:39.905Z,101128.00
2023-04-26T08:39:44.316Z,101131.63
2023-04-26T08:41:54.755Z,101122.34
2023-04-26T08:44:01.916Z,101121.00
2023-04-26T08:46:12.523Z,101124.22
2023-04-26T08:48:18.585Z,101122.50
2023-04-26T08:50:25.943Z,101116.19
2023-04-26T08:52:31.621Z,101122.44
2023-04-26T08:54:37.988Z,101131.38
2023-04-26T08:56:44.545Z,101125.66
2023-04-26T08:58:49.068Z,101121.84
2023-04-26T09:00:54.680Z,101122.06
2023-04-26T09:02:59.304Z,101125.09
2023-04-26T09:05:07.528Z,101122.44
2023-04-26T09:07:21.028Z,101125.81
2023-04-26T09:09:30.136Z,101128.47
2023-04-26T09:11:53.283Z,101126.41
2023-04-26T09:13:58.772Z,101114.88
2023-04-26T09:16:05.134Z,101117.06
2023-04-26T09:18:20.425Z,101112.56
2023-04-26T09:20:26.153Z,101111.31
2023-04-26T09:22:34.264Z,101110.19
2023-04-26T09:24:52.547Z,101117.81
2023-04-26T09:27:05.015Z,101117.06
2023-04-26T09:29:17.026Z,101110.81
2023-04-26T09:31:40.169Z,101111.66
2023-04-26T09:34:01.019Z,101113.88
2023-04-26T09:36:14.768Z,101116.34
2023-04-26T09:38:21.397Z,101111.00
2023-04-26T09:40:26.250Z,101119.31
2023-04-26T09:42:30.799Z,101116.94
2023-04-26T09:44:35.664Z,101124.56
2023-04-26T09:46:40.031Z,101121.38
2023-04-26T09:48:45.202Z,101121.84
2023-04-26T09:50:53.605Z,101120.31
2023-04-26T09:52:58.970Z,101124.59
2023-04-26T09:55:05.296Z,101129.28
2023-04-26T09:57:09.686Z,101124.84
2023-04-26T09:59:14.120Z,101128.75
2023-04-26T10:01:20.550Z,101124.75
2023-04-26T10:03:25.517Z,101119.66
2023-04-26T10:05:31.717Z,101127.75
2023-04-26T10:07:38.983Z,101127.75
2023-04-26T10:09:43.678Z,101118.50
2023-04-26T10:11:50.208Z,101123.94
2023-04-26T10:13:54.453Z,101115.78
2023-04-26T10:15:58.884Z,101112.78
2023-04-26T10:18:03.682Z,101116.38
2023-04-26T10:20:10.524Z,101117.34
2023-04-26T10:22:23.214Z,101107.91
2023-04-26T10:24:28.276Z,101102.94
2023-04-26T10:26:54.963Z,101112.06
2023-04-26T10:29:03.023Z,101103.56
2023-04-26T10:31:08.458Z,101102.28
2023-04-26T10:33:18.174Z,101101.28
2023-04-26T10:35:23.080Z,101096.97
2023-04-26T10:37:27.164Z,101099.50
2023-04-26T10:39:31.910Z,101098.25
2023-04-26T10:41:40.274Z,101102.31
2023-04-26T10:43:46.654Z,101101.03
2023-04-26T10:45:51.959Z,101099.75
2023-04-26T10:48:17.732Z,101101.13
2023-04-26T10:50:22.281Z,101098.97
2023-04-26T10:52:27.141Z,101093.75
2023-04-26T10:54:45.793Z,101089.19
2023-04-26T10:56:53.828Z,101086.16
2023-04-26T11:01:21.303Z,101086.97
2023-04-26T11:03:26.273Z,101089.63
2023-04-26T11:05:42.869Z,101093.56
2023-04-26T11:07:47.318Z,101091.66
2023-04-26T11:09:52.412Z,101086.84
2023-04-26T11:11:56.421Z,101087.09
2023-04-26T11:14:04.875Z,101088.16
2023-04-26T11:16:12.363Z,101076.47
2023-04-26T11:18:21.899Z,101083.25
2023-04-26T11:20:31.656Z,101078.16
2023-04-26T11:22:36.414Z,101091.63
2023-04-26T11:24:40.630Z,101085.56
2023-04-26T11:26:52.727Z,101089.50
2023-04-26T11:28:56.782Z,101088.81
2023-04-26T11:31:02.384Z,101088.41
2023-04-26T11:33:08.437Z,101084.16
2023-04-26T11:35:14.703Z,101087.75
2023-04-26T11:37:19.095Z,101091.47
2023-04-26T11:39:23.784Z,101095.63
2023-04-26T11:41:28.287Z,101091.47
2023-04-26T11:43:37.420Z,101092.66
2023-04-26T11:45:41.593Z,101096.22
2023-04-26T11:47:48.308Z,101100.44
2023-04-26T11:49:54.209Z,101104.03
2023-04-26T11:51:58.568Z,101114.06
2023-04-26T11:54:03.565Z,101106.75
2023-04-26T11:56:16.884Z,101113.59
2023-04-26T11:58:22.044Z,101116.63
2023-04-26T12:00:27.355Z,101110.38
2023-04-26T12:02:32.462Z,101111.66
2023-04-26T12:04:37.957Z,101104.84
2023-04-26T12:06:50.074Z,101114.84
2023-04-26T12:08:54.870Z,101114.22
2023-04-26T12:11:02.508Z,101122.72
2023-04-26T12:13:07.036Z,101119.44
2023-04-26T12:15:15.171Z,101126.78
2023-04-26T12:17:20.412Z,101121.03
2023-04-26T12:19:26.620Z,101118.91
2023-04-26T12:21:31.351Z,101124.88
2023-04-26T12:23:42.526Z,101128.16
2023-04-26T12:25:56.027Z,101124.84
2023-04-26T12:28:03.652Z,101121.31
2023-04-26T12:30:09.978Z,101121.22
2023-04-26T12:32:14.405Z,101116.91
2023-04-26T12:34:18.959Z,101118.63
2023-04-26T12:36:23.317Z,101110.16
2023-04-26T12:38:28.028Z,101108.78
2023-04-26T12:40:34.020Z,101114.97
2023-04-26T12:42:38.553Z,101112.94
2023-04-26T12:44:43.240Z,101110.78
2023-04-26T12:46:47.979Z,101117.28
2023-04-26T12:48:52.832Z,101121.66
2023-04-26T12:50:57.333Z,101115.06
2023-04-26T12:53:01.965Z,101111.97
2023-04-26T12:55:07.125Z,101112.50
2023-04-26T12:57:14.605Z,101105.50
2023-04-26T12:59:18.849Z,101119.63
2023-04-26T13:01:23.341Z,101124.41
2023-04-26T13:03:27.807Z,101119.16
2023-04-26T13:05:32.834Z,101115.63
2023-04-26T13:07:39.541Z,101112.19
2023-04-26T13:09:44.001Z,101114.63
2023-04-26T13:11:48.241Z,101114.13
2023-04-26T13:13:54.642Z,101110.13
2023-04-26T13:15:59.079Z,101106.00
2023-04-26T13:18:03.629Z,101101.13
2023-04-26T13:20:09.448Z,101108.41
2023-04-26T13:22:14.178Z,101118.59
2023-04-26T13:24:18.794Z,101093.88
2023-04-26T13:26:23.114Z,101098.34
2023-04-26T13:28:27.846Z,101098.19
2023-04-26T13:30:34.397Z,101090.81
2023-04-26T13:32:38.866Z,101101.31
2023-04-26T13:34:45.988Z,101104.81
2023-04-26T13:36:50.628Z,101106.81
2023-04-26T13:38:55.660Z,101108.81
2023-04-26T13:40:59.930Z,101101.81
2023-04-26T13:43:04.221Z,101101.59
2023-04-26T13:45:10.552Z,101100.34
2023-04-26T13:47:16.453Z,101100.56
2023-04-26T13:49:22.593Z,101104.00
2023-04-26T13:51:30.578Z,101103.31
2023-04-26T13:53:34.931Z,101111.28
2023-04-26T13:55:39.852Z,101105.63
2023-04-26T13:57:44.282Z,101099.34
2023-04-26T13:59:49.239Z,101105.88
2023-04-26T14:01:56.331Z,101103.09
2023-04-26T14:04:05.403Z,101113.19
2023-04-26T14:06:10.495Z,101104.28
2023-04-26T14:08:15.439Z,101108.81
2023-04-26T14:10:20.428Z,101100.13
2023-04-26T14:12:27.023Z,101097.91
2023-04-26T14:14:34.900Z,101110.28
2023-04-26T14:16:39.274Z,101110.28
2023-04-26T14:18:45.389Z,101103.59
2023-04-26T14:20:51.438Z,101109.13
2023-04-26T14:22:56.452Z,101115.28
2023-04-26T14:25:00.964Z,101102.75
2023-04-26T14:27:09.190Z,101109.56
2023-04-26T14:29:13.682Z,101105.41
2023-04-26T14:31:18.853Z,101106.69
2023-04-26T14:33:25.135Z,101109.34
2023-04-26T14:35:29.708Z,101108.19
2023-04-26T14:37:36.569Z,101096.41
2023-04-26T14:39:41.071Z,101106.09
2023-04-26T14:41:45.294Z,101116.72
2023-04-26T14:43:51.173Z,101110.63
2023-04-26T14:45:57.466Z,101106.16
2023-04-26T14:48:03.747Z,101101.25
2023-04-26T14:50:10.182Z,101103.25
2023-04-26T14:52:15.216Z,101109.94
2023-04-26T14:54:21.624Z,101109.38
2023-04-26T14:56:28.319Z,101113.53
2023-04-26T14:58:32.470Z,101109.53
2023-04-26T15:00:36.953Z,101113.69
2023-04-26T15:02:41.574Z,101107.63
2023-04-26T15:04:46.990Z,101117.78
2023-04-26T15:06:51.203Z,101120.19
2023-04-26T15:08:55.676Z,101105.41
2023-04-26T15:11:01.063Z,101111.31
2023-04-26T15:13:05.712Z,101116.41
2023-04-26T15:15:10.582Z,101104.97
2023-04-26T15:17:14.600Z,101107.72
2023-04-26T15:19:19.206Z,101089.88
2023-04-26T15:21:23.163Z,101104.50
2023-04-26T15:23:29.195Z,101101.22
2023-04-26T15:25:36.755Z,101103.56
2023-04-26T15:27:42.822Z,101098.81
2023-04-26T15:29:47.967Z,101099.91
2023-04-26T15:31:54.728Z,101096.31
2023-04-26T15:33:59.171Z,101101.72
2023-04-26T15:36:03.768Z,101098.75
2023-04-26T15:38:08.031Z,101093.06
2023-04-26T15:40:13.318Z,101103.69
2023-04-26T15:42:17.541Z,101094.59
2023-04-26T15:44:24.110Z,101095.75
2023-04-26T15:46:28.604Z,101090.19
2023-04-26T15:48:32.312Z,101087.53
2023-04-26T15:50:38.239Z,101087.16
2023-04-26T15:52:42.999Z,101088.34
2023-04-26T15:54:47.385Z,101094.50
2023-04-26T15:56:53.054Z,101098.41
2023-04-26T15:58:58.731Z,101088.09
2023-04-26T16:01:05.027Z,101081.06
2023-04-26T16:03:09.738Z,101081.16
2023-04-26T16:05:14.592Z,101076.53
2023-04-26T16:07:18.822Z,101083.50
2023-04-26T16:09:25.695Z,101082.47
2023-04-26T16:11:30.245Z,101082.69
2023-04-26T16:13:35.262Z,101081.72
2023-04-26T16:15:39.712Z,101079.06
2023-04-26T16:17:47.724Z,101079.25
2023-04-26T16:19:52.788Z,101078.50
2023-04-26T16:21:57.441Z,101079.25
2023-04-26T16:24:02.302Z,101069.59
2023-04-26T16:26:07.296Z,101077.25
2023-04-26T16:28:12.477Z,101070.25
2023-04-26T16:30:17.522Z,101069.97
2023-04-26T16:32:21.314Z,101075.78
2023-04-26T16:34:27.675Z,101074.13
2023-04-26T16:36:32.013Z,101075.06
2023-04-26T16:38:36.453Z,101080.59
2023-04-26T16:40:40.732Z,101071.00
2023-04-26T16:42:44.799Z,101068.47
2023-04-26T16:44:49.006Z,101079.47
2023-04-26T16:46:53.317Z,101083.56
2023-04-26T16:48:57.712Z,101075.88
2023-04-26T16:51:06.936Z,101076.88
2023-04-26T16:53:12.064Z,101076.00
2023-04-26T16:55:16.477Z,101075.16
2023-04-26T16:57:20.794Z,101071.25
2023-04-26T16:59:25.278Z,101074.94
2023-04-26T17:01:29.410Z,101076.09
2023-04-26T17:03:33.688Z,101075.94
2023-04-26T17:05:40.519Z,101077.81
2023-04-26T17:07:46.025Z,101078.97
2023-04-26T17:09:54.154Z,101081.81
2023-04-26T17:11:58.078Z,101080.31
2023-04-26T17:14:02.449Z,101061.00
2023-04-26T17:16:07.518Z,101079.25
2023-04-26T17:18:12.628Z,101077.66
2023-04-26T17:20:18.310Z,101083.56
2023-04-26T17:22:22.367Z,101080.31
2023-04-26T17:24:28.288Z,101081.94
2023-04-26T17:26:33.311Z,101086.56
2023-04-26T17:28:39.116Z,101077.78
2023-04-26T17:30:43.348Z,101080.53
2023-04-26T17:32:47.953Z,101077.09
2023-04-26T17:34:51.893Z,101080.53
2023-04-26T17:36:56.083Z,101075.31
2023-04-26T17:39:00.924Z,101076.44
2023-04-26T17:41:06.785Z,101084.28
2023-04-26T17:43:11.690Z,101083.38
2023-04-26T17:45:16.107Z,101072.56
2023-04-26T17:47:20.809Z,101077.28
2023-04-26T17:49:26.014Z,101076.25
2023-04-26T17:51:33.485Z,101083.44
2023-04-26T17:53:37.530Z,101072.19
2023-04-26T17:55:44.003Z,101075.09
2023-04-26T17:57:50.001Z,101075.88
2023-04-26T17:59:58.084Z,101073.13
2023-04-26T18:02:03.146Z,101074.94
2023-04-26T18:04:10.219Z,101076.06
2023-04-26T18:06:14.846Z,101073.97
2023-04-26T18:08:19.004Z,101061.50
2023-04-26T18:10:23.561Z,101060.56
2023-04-26T18:12:28.482Z,101072.00
2023-04-26T18:14:34.207Z,101060.91
2023-04-26T18:16:38.414Z,101059.00
2023-04-26T18:18:42.625Z,101055.00
2023-04-26T18:20:47.248Z,101050.53
2023-04-26T18:22:52.078Z,101055.34
2023-04-26T18:24:56.487Z,101052.28
2023-04-26T18:27:00.816Z,101050.69
2023-04-26T18:29:05.448Z,101048.41
2023-04-26T18:31:11.332Z,101056.53
2023-04-26T18:33:15.767Z,101049.69
2023-04-26T18:35:20.430Z,101047.72
2023-04-26T18:37:25.794Z,101053.00
2023-04-26T18:39:31.157Z,101058.81
2023-04-26T18:41:35.587Z,101059.78
2023-04-26T18:43:40.574Z,101060.91
2023-04-26T18:45:44.319Z,101060.91
2023-04-26T18:47:51.262Z,101055.59
2023-04-26T18:49:57.467Z,101058.50
2023-04-26T18:52:03.994Z,101057.66
2023-04-26T18:54:08.902Z,101060.31
2023-04-26T18:56:14.149Z,101052.19
2023-04-26T18:58:18.577Z,101049.34
2023-04-26T19:00:23.383Z,101065.31
2023-04-26T19:02:27.640Z,101064.34
2023-04-26T19:04:33.624Z,101066.53
2023-04-26T19:06:38.396Z,101062.09
2023-04-26T19:08:42.579Z,101070.78
2023-04-26T19:10:47.189Z,101075.34
2023-04-26T19:12:51.565Z,101064.84
2023-04-26T19:14:55.954Z,101067.50
2023-04-26T19:17:00.506Z,101066.47
2023-04-26T19:19:05.871Z,101060.41
2023-04-26T19:21:12.303Z,101064.84
2023-04-26T19:23:17.670Z,101071.25
2023-04-26T19:25:27.119Z,101080.53
2023-04-26T19:27:31.213Z,101075.50
2023-04-26T19:29:35.254Z,101081.91
2023-04-26T19:31:39.236Z,101070.78
2023-04-26T19:33:44.043Z,101064.06
2023-04-26T19:35:48.670Z,101071.06
2023-04-26T19:37:54.489Z,101083.41
2023-04-26T19:39:58.791Z,101074.53
2023-04-26T19:42:03.518Z,101083.22
2023-04-26T19:44:07.509Z,101087.59
2023-04-26T19:46:16.046Z,101084.00
2023-04-26T19:48:20.393Z,101091.94
2023-04-26T19:50:24.421Z,101084.00
2023-04-26T19:52:28.720Z,101090.09
2023-04-26T19:54:33.837Z,101089.91
2023-04-26T19:56:37.599Z,101086.47
2023-04-26T19:58:42.429Z,101084.00
2023-04-26T20:00:46.086Z,101089.56
2023-04-26T20:02:51.440Z,101083.75
2023-04-26T20:04:56.454Z,101081.34
2023-04-26T20:07:01.820Z,101080.50
2023-04-26T20:09:06.989Z,101081.41
2023-04-26T20:11:17.280Z,101080.50
2023-04-26T20:13:22.656Z,101085.59
2023-04-26T20:15:27.843Z,101082.22
2023-04-26T20:17:32.628Z,101075.03
2023-04-26T20:19:38.423Z,101076.91
2023-04-26T20:21:43.051Z,101073.59
2023-04-26T20:23:48.146Z,101078.78
2023-04-26T20:25:53.173Z,101082.34
2023-04-26T20:28:02.646Z,101082.28
2023-04-26T20:30:09.441Z,101089.34
2023-04-26T20:32:13.803Z,101081.41
2023-04-26T20:34:18.168Z,101077.06
2023-04-26T20:36:22.833Z,101089.34
2023-04-26T20:38:27.628Z,101094.81
2023-04-26T20:40:32.262Z,101103.34
2023-04-26T20:42:36.816Z,101103.94
2023-04-26T20:44:42.996Z,101105.34
2023-04-26T20:46:47.315Z,101099.09
2023-04-26T20:48:51.702Z,101105.44
2023-04-26T20:50:57.334Z,101103.00
2023-04-26T20:53:02.138Z,101092.34
2023-04-26T20:55:07.116Z,101102.09
2023-04-26T20:57:10.807Z,101093.53
2023-04-26T20:59:14.468Z,101102.56
2023-04-26T21:01:19.532Z,101106.31
2023-04-26T21:03:24.049Z,101104.47
2023-04-26T21:05:28.235Z,101102.47
2023-04-26T21:07:32.831Z,101099.75
2023-04-26T21:09:37.000Z,101104.13
2023-04-26T21:11:41.827Z,101104.03
2023-04-26T21:13:47.226Z,101102.34
2023-04-26T21:15:53.194Z,101111.97
2023-04-26T21:17:59.099Z,101100.63
2023-04-26T21:20:04.534Z,101106.75
2023-04-26T21:22:10.209Z,101104.38
2023-04-26T21:24:14.894Z,101099.16
2023-04-26T21:26:25.071Z,101096.63
2023-04-26T21:28:29.738Z,101103.66
2023-04-26T21:30:33.863Z,101100.09
2023-04-26T21:32:40.563Z,101094.63
2023-04-26T21:34:46.730Z,101105.03
2023-04-26T21:36:51.609Z,101102.25
2023-04-26T21:38:56.054Z,101094.41
2023-04-26T21:41:00.560Z,101105.22
2023-04-26T21:43:05.741Z,101104.28
2023-04-26T21:45:12.098Z,101103.34
2023-04-26T21:47:17.131Z,101103.28
2023-04-26T21:49:22.163Z,101091.50
2023-04-26T21:51:28.246Z,101094.16
2023-04-26T21:53:35.454Z,101089.78
2023-04-26T21:55:39.607Z,101089.88
2023-04-26T21:57:44.757Z,101089.88
2023-04-26T21:59:49.003Z,101090.72
2023-04-26T22:01:53.227Z,101091.50
2023-04-26T22:03:57.525Z,101082.78
2023-04-26T22:06:05.784Z,101082.97
2023-04-26T22:08:13.881Z,101078.59
2023-04-26T22:10:18.982Z,101076.22
2023-04-26T22:12:23.441Z,101068.38
2023-04-26T22:14:28.037Z,101071.03
2023-04-26T22:16:32.891Z,101068.28
2023-04-26T22:18:40.908Z,101069.91
2023-04-26T22:20:45.382Z,101056.53
2023-04-26T22:22:49.569Z,101058.84
2023-04-26T22:24:55.494Z,101056.88
2023-04-26T22:26:59.871Z,101063.13
2023-04-26T22:29:04.243Z,101058.78
2023-04-26T22:31:09.827Z,101054.59
2023-04-26T22:33:16.590Z,101054.66
2023-04-26T22:35:21.855Z,101054.59
2023-04-26T22:37:25.910Z,101061.59
2023-04-26T22:39:30.088Z,101050.22
2023-04-26T22:41:35.744Z,101052.88
2023-04-26T22:43:41.971Z,101051.16
2023-04-26T22:45:46.572Z,101040.75
2023-04-26T22:47:52.300Z,101043.50
2023-04-26T22:49:56.681Z,101043.50
2023-04-26T22:52:09.459Z,101043.50
2023-04-26T22:54:19.538Z,101037.28
2023-04-26T22:56:22.925Z,101033.00
2023-04-26T22:58:29.023Z,101040.06
2023-04-26T23:00:33.798Z,101035.81
2023-04-26T23:02:38.190Z,101035.13
2023-04-26T23:04:42.137Z,101035.28
2023-04-26T23:06:46.498Z,101041.41
2023-04-26T23:08:51.137Z,101046.63
2023-04-26T23:10:55.462Z,101035.88
2023-04-26T23:12:59.400Z,101041.94
2023-04-26T23:15:06.288Z,101040.41
2023-04-26T23:17:12.415Z,101038.88
2023-04-26T23:19:16.767Z,101039.78
2023-04-26T23:21:21.075Z,101033.59
2023-04-26T23:23:25.317Z,101040.41
2023-04-26T23:25:29.566Z,101035.28
2023-04-26T23:27:33.607Z,101027.38
2023-04-26T23:29:37.691Z,101032.31
2023-04-26T23:31:43.179Z,101034.72
2023-04-26T23:33:47.165Z,101038.94
2023-04-26T23:35:52.519Z,101041.38
2023-04-26T23:37:56.875Z,101038.53
2023-04-26T23:40:01.127Z,101039.56
2023-04-26T23:42:05.884Z,101031.63
2023-04-26T23:44:10.157Z,101043.00
2023-04-26T23:46:14.378Z,101045.47
2023-04-26T23:48:19.805Z,101036.59
2023-04-26T23:50:23.748Z,101034.72
2023-04-26T23:52:27.761Z,101037.44
2023-04-26T23:54:31.654Z,101033.97
2023-04-26T23:56:35.623Z,101033.88